createdAt,value
2022-09-06T00:00:57.093Z,64.26
2022-09-06T00:01:57.115Z,64.5
2022-09-06T00:02:57.165Z,64.63
2022-09-06T00:03:57.116Z,64.93
2022-09-06T00:04:57.078Z,65.83
2022-09-06T00:05:57.087Z,66.26
2022-09-06T00:06:57.103Z,66.36
2022-09-06T00:07:57.138Z,66.89
2022-09-06T00:08:57.230Z,66.73
2022-09-06T00:09:57.129Z,67.29
2022-09-06T00:11:03.199Z,66.7
2022-09-06T00:11:57.079Z,67.53
2022-09-06T00:12:57.219Z,66.96
2022-09-06T00:13:57.304Z,66.38
2022-09-06T00:14:57.235Z,66.06
2022-09-06T00:15:57.152Z,65.97
2022-09-06T00:16:57.215Z,65.71
2022-09-06T00:17:57.436Z,65.48
2022-09-06T00:18:57.116Z,65.18
2022-09-06T00:19:57.110Z,65.4
2022-09-06T00:20:57.113Z,64.63
2022-09-06T00:21:57.101Z,64.72
2022-09-06T00:22:57.129Z,64.38
2022-09-06T00:23:57.096Z,64.47
2022-09-06T00:24:57.088Z,64.72
2022-09-06T00:25:57.090Z,64.29
2022-09-06T00:26:57.102Z,63.8
2022-09-06T00:27:57.106Z,63.75
2022-09-06T00:28:57.099Z,63.42
2022-09-06T00:29:57.156Z,63.65
2022-09-06T00:30:57.162Z,62.97
2022-09-06T00:31:57.146Z,62.96
2022-09-06T00:32:57.115Z,63.21
2022-09-06T00:33:57.076Z,62.79
2022-09-06T00:34:57.073Z,62.68
2022-09-06T00:35:57.095Z,62.7
2022-09-06T00:36:57.077Z,62.46
2022-09-06T00:37:57.172Z,62.32
2022-09-06T00:38:57.054Z,62.27
2022-09-06T00:39:57.337Z,62.61
2022-09-06T00:40:57.124Z,62.19
2022-09-06T00:41:57.386Z,62.65
2022-09-06T00:42:57.310Z,62.15
2022-09-06T00:43:58.161Z,62.27
2022-09-06T00:44:57.256Z,62.39
2022-09-06T00:45:57.325Z,61.62
2022-09-06T00:46:57.927Z,61.98
2022-09-06T00:47:57.115Z,62.1
2022-09-06T00:48:57.440Z,61.94
2022-09-06T00:49:57.998Z,61.82
2022-09-06T00:50:58.401Z,62.96
2022-09-06T00:51:57.172Z,62.25
2022-09-06T00:52:57.459Z,62.64
2022-09-06T00:53:57.249Z,62.29
2022-09-06T00:54:57.418Z,62.31
2022-09-06T00:55:57.353Z,63
2022-09-06T00:56:58.015Z,63.42
2022-09-06T00:57:57.291Z,63.54
2022-09-06T00:58:57.519Z,63.41
2022-09-06T00:59:58.116Z,63.75
2022-09-06T01:00:57.530Z,63.94
2022-09-06T01:01:58.019Z,64.36
2022-09-06T01:02:57.262Z,64.56
2022-09-06T01:03:57.301Z,64.68
2022-09-06T01:04:57.954Z,64.48
2022-09-06T01:05:57.178Z,63.89
2022-09-06T01:06:57.829Z,63.64
2022-09-06T01:07:57.097Z,63.83
2022-09-06T01:08:57.309Z,63.25
2022-09-06T01:09:57.104Z,62.87
2022-09-06T01:10:57.105Z,63.68
2022-09-06T01:11:57.080Z,63.29
2022-09-06T01:12:57.174Z,62.81
2022-09-06T01:13:57.299Z,62.97
2022-09-06T01:14:57.222Z,63.07
2022-09-06T01:15:57.235Z,62.81
2022-09-06T01:16:57.079Z,62.87
2022-09-06T01:17:57.454Z,62.44
2022-09-06T01:18:57.113Z,62.02
2022-09-06T01:19:57.096Z,62.01
2022-09-06T01:20:57.262Z,62.07
2022-09-06T01:21:57.114Z,62.78
2022-09-06T01:22:57.106Z,63.13
2022-09-06T01:23:57.104Z,62.72
2022-09-06T01:24:57.198Z,62.7
2022-09-06T01:25:57.096Z,62.56
2022-09-06T01:26:57.100Z,62.8
2022-09-06T01:27:57.086Z,64.29
2022-09-06T01:28:57.099Z,62.97
2022-09-06T01:29:57.109Z,62.97
2022-09-06T01:30:57.141Z,63.3
2022-09-06T01:31:57.111Z,64.03
2022-09-06T01:32:57.120Z,63.57
2022-09-06T01:33:57.099Z,63.71
2022-09-06T01:34:57.096Z,63.83
2022-09-06T01:35:57.112Z,64.11
2022-09-06T01:37:10.542Z,64.49
2022-09-06T01:37:57.095Z,64.52
2022-09-06T01:38:57.082Z,64.75
2022-09-06T01:39:57.134Z,64.97
2022-09-06T01:40:57.100Z,65.48
2022-09-06T01:41:57.096Z,65.71
2022-09-06T01:42:57.112Z,66.03
2022-09-06T01:43:57.105Z,66.06
2022-09-06T01:44:57.114Z,66.59
2022-09-06T01:45:57.186Z,66.56
2022-09-06T01:46:57.212Z,67.25
2022-09-06T01:47:57.108Z,67.45
2022-09-06T01:48:57.095Z,67.65
2022-09-06T01:49:57.098Z,67.94
2022-09-06T01:50:57.114Z,67.92
2022-09-06T01:51:57.102Z,68.1
2022-09-06T01:52:57.098Z,68.12
2022-09-06T01:53:57.119Z,68.15
2022-09-06T01:54:57.171Z,68.41
2022-09-06T01:55:57.109Z,68.71
2022-09-06T01:56:57.108Z,69.2
2022-09-06T01:57:57.094Z,69.64
2022-09-06T01:58:57.105Z,69.61
2022-09-06T01:59:57.098Z,69.78
2022-09-06T02:00:57.098Z,70.67
2022-09-06T02:01:57.162Z,71.2
2022-09-06T02:02:57.186Z,71.55
2022-09-06T02:03:57.115Z,71.83
2022-09-06T02:04:57.109Z,72.04
2022-09-06T02:05:57.202Z,72.69
2022-09-06T02:06:57.111Z,73.87
2022-09-06T02:07:57.225Z,74.15
2022-09-06T02:08:57.094Z,74.23
2022-09-06T02:09:57.094Z,74.78
2022-09-06T02:10:57.100Z,75.17
2022-09-06T02:11:57.103Z,76.01
2022-09-06T02:12:57.102Z,75.75
2022-09-06T02:13:57.100Z,76.37
2022-09-06T02:14:57.117Z,76.96
2022-09-06T02:15:57.105Z,78.2
2022-09-06T02:16:57.137Z,78.89
2022-09-06T02:17:57.116Z,79.57
2022-09-06T02:18:57.240Z,79.31
2022-09-06T02:19:57.087Z,79.47
2022-09-06T02:20:57.104Z,80.46
2022-09-06T02:21:57.092Z,81.17
2022-09-06T02:22:57.187Z,80.4
2022-09-06T02:23:58.099Z,79.52
2022-09-06T02:24:57.400Z,80.53
2022-09-06T02:25:57.142Z,79.8
2022-09-06T02:26:58.026Z,79.62
2022-09-06T02:27:57.499Z,78.35
2022-09-06T02:28:58.082Z,76.66
2022-09-06T02:29:56.936Z,75.51
2022-09-06T02:30:57.439Z,74.12
2022-09-06T02:31:57.513Z,72.81
2022-09-06T02:32:58.163Z,71.45
2022-09-06T02:33:57.277Z,70.2
2022-09-06T02:34:57.500Z,69.14
2022-09-06T02:35:58.202Z,67.44
2022-09-06T02:36:57.902Z,65.54
2022-09-06T02:37:57.130Z,64.81
2022-09-06T02:38:57.145Z,63.81
2022-09-06T02:39:57.218Z,62.91
2022-09-06T02:40:57.112Z,62.12
2022-09-06T02:41:57.110Z,61.52
2022-09-06T02:42:57.101Z,61.12
2022-09-06T02:43:57.106Z,60.68
2022-09-06T02:44:57.124Z,60.56
2022-09-06T02:45:57.138Z,60.53
2022-09-06T02:47:00.105Z,60.25
2022-09-06T02:47:57.119Z,60.32
2022-09-06T02:48:57.101Z,60.31
2022-09-06T02:49:57.119Z,60.25
2022-09-06T02:50:57.103Z,60.21
2022-09-06T02:51:57.127Z,60.27
2022-09-06T02:52:57.101Z,60.46
2022-09-06T02:53:57.099Z,60.46
2022-09-06T02:54:57.123Z,60.29
2022-09-06T02:55:57.095Z,60.25
2022-09-06T02:56:57.104Z,60.58
2022-09-06T02:57:57.118Z,59.69
2022-09-06T02:58:57.131Z,59.39
2022-09-06T02:59:57.111Z,59.55
2022-09-06T03:00:57.156Z,59.9
2022-09-06T03:01:57.142Z,59.99
2022-09-06T03:02:57.095Z,59.43
2022-09-06T03:03:57.102Z,58.96
2022-09-06T03:04:57.102Z,59.78
2022-09-06T03:05:57.096Z,59.12
2022-09-06T03:06:57.109Z,58.85
2022-09-06T03:07:57.107Z,58.7
2022-09-06T03:08:57.091Z,58.77
2022-09-06T03:09:57.102Z,58.47
2022-09-06T03:10:57.104Z,58.23
2022-09-06T03:11:57.104Z,57.81
2022-09-06T03:12:57.118Z,56.95
2022-09-06T03:13:57.096Z,57.21
2022-09-06T03:14:57.098Z,57.38
2022-09-06T03:15:57.101Z,57.16
2022-09-06T03:16:57.132Z,57.63
2022-09-06T03:17:57.102Z,57.61
2022-09-06T03:18:57.173Z,57.54
2022-09-06T03:19:57.076Z,57.75
2022-09-06T03:20:57.111Z,57.68
2022-09-06T03:21:57.132Z,57.88
2022-09-06T03:22:57.127Z,57.76
2022-09-06T03:23:57.293Z,58.05
2022-09-06T03:24:57.096Z,58.37
2022-09-06T03:25:57.181Z,58.29
2022-09-06T03:26:57.131Z,58.37
2022-09-06T03:27:57.433Z,58.82
2022-09-06T03:28:57.107Z,58.98
2022-09-06T03:29:57.093Z,58.82
2022-09-06T03:30:57.487Z,58.84
2022-09-06T03:31:57.113Z,59.16
2022-09-06T03:32:59.800Z,59.1
2022-09-06T03:33:57.216Z,59.26
2022-09-06T03:34:57.102Z,59.88
2022-09-06T03:35:57.098Z,59.55
2022-09-06T03:36:57.106Z,59.87
2022-09-06T03:37:57.143Z,60.08
2022-09-06T03:38:57.107Z,60.31
2022-09-06T03:39:57.155Z,59.96
2022-09-06T03:40:57.092Z,60.29
2022-09-06T03:41:57.097Z,60.55
2022-09-06T03:42:57.102Z,60.52
2022-09-06T03:43:57.259Z,60.6
2022-09-06T03:44:57.134Z,60.77
2022-09-06T03:45:57.278Z,61.09
2022-09-06T03:46:57.085Z,61.68
2022-09-06T03:47:57.264Z,61.49
2022-09-06T03:48:57.464Z,62.3
2022-09-06T03:49:57.287Z,61.83
2022-09-06T03:50:57.143Z,61.92
2022-09-06T03:51:57.428Z,62.01
2022-09-06T03:52:57.191Z,61.64
2022-09-06T03:53:57.458Z,61.77
2022-09-06T03:54:57.303Z,61.79
2022-09-06T03:55:57.462Z,61.83
2022-09-06T03:56:57.254Z,61.62
2022-09-06T03:57:59.001Z,61.55
2022-09-06T03:58:57.086Z,61.38
2022-09-06T03:59:57.099Z,61.26
2022-09-06T04:00:57.131Z,61.19
2022-09-06T04:01:57.162Z,61.47
2022-09-06T04:03:03.116Z,61.34
2022-09-06T04:03:57.103Z,61.07
2022-09-06T04:04:57.110Z,61.48
2022-09-06T04:05:57.100Z,61.38
2022-09-06T04:06:57.122Z,61.85
2022-09-06T04:07:57.079Z,62.11
2022-09-06T04:08:57.288Z,62.7
2022-09-06T04:09:57.405Z,63.49
2022-09-06T04:10:57.138Z,63.73
2022-09-06T04:11:57.105Z,62.74
2022-09-06T04:12:57.603Z,62.73
2022-09-06T04:13:57.094Z,62.68
2022-09-06T04:14:57.244Z,63.12
2022-09-06T04:15:57.316Z,63.69
2022-09-06T04:16:57.672Z,63.9
2022-09-06T04:17:57.814Z,64.07
2022-09-06T04:18:57.128Z,64.2
2022-09-06T04:19:57.413Z,64.01
2022-09-06T04:20:57.658Z,63.76
2022-09-06T04:21:57.208Z,64.07
2022-09-06T04:22:57.118Z,63.99
2022-09-06T04:23:57.173Z,63.86
2022-09-06T04:24:57.376Z,63.55
2022-09-06T04:25:59.468Z,63.45
2022-09-06T04:26:57.108Z,63.49
2022-09-06T04:27:57.109Z,63.38
2022-09-06T04:28:57.271Z,63.44
2022-09-06T04:29:57.107Z,63.71
2022-09-06T04:30:59.819Z,63.06
2022-09-06T04:31:57.535Z,63.03
2022-09-06T04:32:57.199Z,63.4
2022-09-06T04:33:57.093Z,63.33
2022-09-06T04:34:57.097Z,62.95
2022-09-06T04:35:57.333Z,63.21
2022-09-06T04:36:57.098Z,62.92
2022-09-06T04:37:57.141Z,62.76
2022-09-06T04:38:57.110Z,62.99
2022-09-06T04:39:57.142Z,63.69
2022-09-06T04:40:57.098Z,63.6
2022-09-06T04:41:57.200Z,63.19
2022-09-06T04:42:57.110Z,63.15
2022-09-06T04:43:57.099Z,63.07
2022-09-06T04:44:57.091Z,63.16
2022-09-06T04:45:57.135Z,63.43
2022-09-06T04:46:58.219Z,63.5
2022-09-06T04:47:57.093Z,63.6
2022-09-06T04:48:57.105Z,63.31
2022-09-06T04:49:57.098Z,64.01
2022-09-06T04:50:57.220Z,64.04
2022-09-06T04:51:57.107Z,63.97
2022-09-06T04:52:57.116Z,64.24
2022-09-06T04:53:57.099Z,64.22
2022-09-06T04:54:57.128Z,64.45
2022-09-06T04:55:57.107Z,64.42
2022-09-06T04:56:57.106Z,65.71
2022-09-06T04:57:57.101Z,64.68
2022-09-06T04:58:57.111Z,64.58
2022-09-06T04:59:57.099Z,64.39
2022-09-06T05:00:57.172Z,64.5
2022-09-06T05:01:57.218Z,64.45
2022-09-06T05:02:57.126Z,64.8
2022-09-06T05:04:00.116Z,64.85
2022-09-06T05:04:57.098Z,64.57
2022-09-06T05:05:57.101Z,64.89
2022-09-06T05:06:57.096Z,64.56
2022-09-06T05:07:57.105Z,64.6
2022-09-06T05:08:57.095Z,64.72
2022-09-06T05:09:57.104Z,65.45
2022-09-06T05:10:57.101Z,65.27
2022-09-06T05:11:57.250Z,65.4
2022-09-06T05:12:57.122Z,65.86
2022-09-06T05:13:57.211Z,65.81
2022-09-06T05:14:57.092Z,66.44
2022-09-06T05:15:57.101Z,66.3
2022-09-06T05:16:57.141Z,66.17
2022-09-06T05:17:57.133Z,66.03
2022-09-06T05:18:57.089Z,66.65
2022-09-06T05:19:57.114Z,67.94
2022-09-06T05:20:57.108Z,68.68
2022-09-06T05:21:57.114Z,67.08
2022-09-06T05:22:57.106Z,67.02
2022-09-06T05:24:00.109Z,67.14
2022-09-06T05:24:57.117Z,66.67
2022-09-06T05:25:57.092Z,66.59
2022-09-06T05:26:57.088Z,66.39
2022-09-06T05:27:57.101Z,66.05
2022-09-06T05:28:57.098Z,65.53
2022-09-06T05:29:57.083Z,65.74
2022-09-06T05:30:57.101Z,66.09
2022-09-06T05:31:57.121Z,65.68
2022-09-06T05:32:57.093Z,65.44
2022-09-06T05:33:57.104Z,65.16
2022-09-06T05:34:57.107Z,66.24
2022-09-06T05:35:57.268Z,65.82
2022-09-06T05:36:57.104Z,65.65
2022-09-06T05:37:57.205Z,65.66
2022-09-06T05:38:57.094Z,66
2022-09-06T05:39:57.254Z,65.58
2022-09-06T05:40:58.437Z,65.98
2022-09-06T05:41:58.415Z,66.1
2022-09-06T05:42:58.423Z,66.34
2022-09-06T05:43:57.272Z,65.94
2022-09-06T05:44:58.377Z,65.26
2022-09-06T05:45:58.586Z,65.32
2022-09-06T05:46:57.244Z,65.16
2022-09-06T05:47:57.564Z,64.99
2022-09-06T05:48:57.736Z,65.02
2022-09-06T05:49:57.463Z,64.95
2022-09-06T05:50:57.097Z,65.49
2022-09-06T05:51:57.241Z,65.12
2022-09-06T05:52:57.103Z,64.66
2022-09-06T05:53:57.130Z,64.76
2022-09-06T05:54:57.106Z,64.54
2022-09-06T05:55:57.118Z,64.15
2022-09-06T05:56:57.117Z,64.32
2022-09-06T05:57:57.310Z,64.36
2022-09-06T05:58:57.126Z,64.78
2022-09-06T05:59:57.094Z,65.13
2022-09-06T06:00:57.114Z,64.14
2022-09-06T06:01:57.130Z,62.8
2022-09-06T06:02:57.096Z,62.34
2022-09-06T06:03:57.112Z,62.44
2022-09-06T06:04:57.149Z,63.67
2022-09-06T06:05:57.100Z,62.2
2022-09-06T06:06:57.112Z,61.8
2022-09-06T06:07:57.165Z,62.55
2022-09-06T06:08:57.112Z,62.87
2022-09-06T06:09:57.107Z,63.38
2022-09-06T06:10:57.096Z,65.11
2022-09-06T06:11:57.102Z,66.7
2022-09-06T06:12:57.121Z,67.29
2022-09-06T06:13:57.098Z,68.57
2022-09-06T06:14:57.102Z,68.52
2022-09-06T06:15:57.116Z,69.19
2022-09-06T06:16:57.184Z,70.2
2022-09-06T06:17:57.150Z,69.21
2022-09-06T06:18:57.158Z,74.51
2022-09-06T06:19:57.209Z,72.02
2022-09-06T06:20:57.106Z,73.43
2022-09-06T06:21:57.127Z,79.13
2022-09-06T06:22:57.115Z,82.84
2022-09-06T06:23:57.094Z,83.63
2022-09-06T06:24:57.111Z,85.72
2022-09-06T06:25:57.103Z,85.71
2022-09-06T06:26:57.104Z,86.23
2022-09-06T06:27:57.229Z,84.63
2022-09-06T06:28:57.220Z,83.36
2022-09-06T06:29:57.176Z,86.03
2022-09-06T06:30:57.103Z,87.77
2022-09-06T06:31:57.196Z,87.76
2022-09-06T06:32:57.094Z,87.7
2022-09-06T06:33:57.200Z,87.83
2022-09-06T06:34:57.095Z,87.92
2022-09-06T06:35:57.093Z,89.15
2022-09-06T06:36:57.128Z,90.8
2022-09-06T06:37:57.351Z,90.23
2022-09-06T06:38:57.333Z,90.51
2022-09-06T06:39:57.225Z,91.03
2022-09-06T06:41:06.501Z,90.75
2022-09-06T06:41:57.450Z,91.14
2022-09-06T06:42:57.216Z,90.86
2022-09-06T06:43:57.096Z,90.64
2022-09-06T06:44:57.256Z,88.92
2022-09-06T06:45:57.167Z,89.86
2022-09-06T06:46:57.126Z,89.25
2022-09-06T06:47:57.131Z,89.5
2022-09-06T06:48:57.118Z,90.09
2022-09-06T06:49:57.107Z,91.02
2022-09-06T06:50:57.124Z,91.15
2022-09-06T06:51:57.147Z,91.71
2022-09-06T06:52:57.106Z,91.14
2022-09-06T06:53:57.105Z,91.3
2022-09-06T06:54:57.112Z,91.4
2022-09-06T06:55:57.110Z,90.61
2022-09-06T06:56:57.133Z,91.98
2022-09-06T06:57:57.105Z,91.44
2022-09-06T06:58:57.097Z,91.73
2022-09-06T06:59:57.239Z,90.3
2022-09-06T07:00:57.272Z,90.12
2022-09-06T07:01:57.284Z,89.35
2022-09-06T07:02:57.101Z,89.34
2022-09-06T07:03:57.102Z,87.71
2022-09-06T07:04:57.107Z,84.85
2022-09-06T07:07:32.772Z,77.14
2022-09-06T07:07:57.095Z,76.99
2022-09-06T07:08:57.124Z,70.72
2022-09-06T07:10:33.309Z,69.72
2022-09-06T07:10:57.174Z,65.96
2022-09-06T07:11:57.171Z,60.26
2022-09-06T07:12:57.098Z,56.87
2022-09-06T07:13:57.102Z,55.52
2022-09-06T07:14:57.106Z,52.22
2022-09-06T07:15:57.103Z,48.9
2022-09-06T07:16:57.121Z,47.7
2022-09-06T07:17:57.105Z,48
2022-09-06T07:18:57.197Z,47.53
2022-09-06T07:20:16.322Z,46.4
2022-09-06T07:21:57.884Z,47.48
2022-09-06T07:24:57.098Z,45.43
2022-09-06T07:25:57.149Z,45.62
2022-09-06T07:27:57.176Z,43.32
2022-09-06T07:28:57.077Z,44.52
2022-09-06T07:29:57.225Z,45.35
2022-09-06T07:30:57.593Z,44.85
2022-09-06T07:32:10.633Z,45.62
2022-09-06T07:32:57.188Z,46.28
2022-09-06T07:33:57.470Z,46.68
2022-09-06T07:34:57.609Z,44.07
2022-09-06T07:35:57.100Z,44.39
2022-09-06T07:36:57.118Z,44.93
2022-09-06T07:37:57.266Z,44.93
2022-09-06T07:38:57.499Z,42.83
2022-09-06T07:39:57.139Z,43.13
2022-09-06T07:40:57.100Z,41.83
2022-09-06T07:41:57.106Z,40.63
2022-09-06T07:42:57.356Z,41.35
2022-09-06T07:43:57.382Z,41.22
2022-09-06T07:44:57.127Z,41.31
2022-09-06T07:45:57.227Z,41.69
2022-09-06T07:47:58.499Z,42.31
2022-09-06T07:48:57.099Z,42.41
2022-09-06T07:51:00.369Z,42.91
2022-09-06T07:51:57.165Z,41.23
2022-09-06T07:54:34.688Z,40.97
2022-09-06T07:54:57.111Z,41.95
2022-09-06T07:55:57.139Z,42.85
2022-09-06T07:56:57.091Z,41.4
2022-09-06T07:57:57.153Z,42.27
2022-09-06T07:58:57.099Z,41.19
2022-09-06T07:59:57.101Z,40.46
2022-09-06T08:00:57.125Z,41.54
2022-09-06T08:01:57.165Z,43.22
2022-09-06T08:02:57.123Z,42.55
2022-09-06T08:03:57.113Z,41.56
2022-09-06T08:04:57.116Z,40.76
2022-09-06T08:06:10.581Z,41.74
2022-09-06T08:09:57.102Z,42.48
2022-09-06T08:10:57.102Z,43.41
2022-09-06T08:11:57.114Z,42.59
2022-09-06T08:12:57.109Z,41.88
2022-09-06T08:13:57.089Z,41.8
2022-09-06T08:14:57.127Z,41.81
2022-09-06T08:15:57.158Z,42.47
2022-09-06T08:16:57.098Z,40.39
2022-09-06T08:17:57.107Z,39.84
2022-09-06T08:18:57.196Z,40.68
2022-09-06T08:19:57.110Z,40.15
2022-09-06T08:20:57.092Z,39.7
2022-09-06T08:21:57.101Z,39.62
2022-09-06T08:22:57.100Z,38.86
2022-09-06T08:23:57.100Z,39.02
2022-09-06T08:24:57.095Z,39.12
2022-09-06T08:25:57.095Z,39.65
2022-09-06T08:26:57.106Z,40
2022-09-06T08:27:57.207Z,39.76
2022-09-06T08:28:57.119Z,39.07
2022-09-06T08:29:57.191Z,40.43
2022-09-06T08:30:57.076Z,39.8
2022-09-06T08:31:57.131Z,39.81
2022-09-06T08:32:57.194Z,40.54
2022-09-06T08:33:57.073Z,41.16
2022-09-06T08:34:57.287Z,41.9
2022-09-06T08:35:57.324Z,41.79
2022-09-06T08:36:57.289Z,40.71
2022-09-06T08:37:57.572Z,41.52
2022-09-06T08:38:57.929Z,40
2022-09-06T08:39:58.858Z,40.36
2022-09-06T08:40:57.516Z,39.7
2022-09-06T08:41:57.720Z,39.91
2022-09-06T08:42:57.879Z,40.21
2022-09-06T08:44:59.780Z,39.39
2022-09-06T08:45:57.987Z,39.23
2022-09-06T08:46:58.434Z,39.4
2022-09-06T08:47:57.387Z,39.61
2022-09-06T08:48:57.413Z,40.24
2022-09-06T08:49:57.331Z,39.25
2022-09-06T08:50:57.638Z,39.08
2022-09-06T08:51:57.081Z,38.41
2022-09-06T08:53:16.585Z,38.71
2022-09-06T08:53:57.200Z,38.29
2022-09-06T08:54:57.389Z,37.6
2022-09-06T08:55:57.224Z,38.18
2022-09-06T08:56:57.259Z,39.09
2022-09-06T08:57:57.580Z,39.06
2022-09-06T08:58:57.523Z,37.48
2022-09-06T08:59:57.224Z,36.3
2022-09-06T09:00:57.447Z,37.04
2022-09-06T09:01:57.726Z,36.93
2022-09-06T09:02:57.250Z,36.62
2022-09-06T09:03:57.412Z,37.48
2022-09-06T09:04:57.513Z,36.03
2022-09-06T09:05:57.105Z,36.14
2022-09-06T09:06:57.301Z,35.97
2022-09-06T09:07:57.112Z,35.04
2022-09-06T09:08:57.099Z,34.75
2022-09-06T09:09:57.104Z,34.88
2022-09-06T09:10:57.104Z,35.16
2022-09-06T09:11:57.109Z,35.77
2022-09-06T09:12:57.144Z,35.98
2022-09-06T09:13:58.398Z,35.4
2022-09-06T09:14:57.103Z,33.74
2022-09-06T09:15:57.114Z,33.01
2022-09-06T09:16:57.095Z,33.07
2022-09-06T09:17:57.114Z,33.32
2022-09-06T09:18:57.103Z,33.23
2022-09-06T09:19:57.099Z,33.62
2022-09-06T09:20:57.127Z,32.72
2022-09-06T09:21:57.102Z,33.21
2022-09-06T09:22:57.110Z,32.8
2022-09-06T09:23:57.115Z,33.12
2022-09-06T09:24:57.214Z,33.43
2022-09-06T09:25:57.167Z,34.18
2022-09-06T09:26:57.106Z,34.27
2022-09-06T09:27:57.107Z,34.44
2022-09-06T09:28:57.108Z,33.8
2022-09-06T09:30:57.236Z,32.98
2022-09-06T09:31:57.152Z,32.92
2022-09-06T09:32:57.125Z,32.36
2022-09-06T09:33:57.112Z,31.98
2022-09-06T09:34:57.098Z,31.46
2022-09-06T09:35:57.108Z,30.76
2022-09-06T09:38:07.674Z,31.7
2022-09-06T09:38:57.108Z,32.85
2022-09-06T09:39:57.097Z,32.11
2022-09-06T09:40:57.099Z,31.51
2022-09-06T09:41:57.102Z,32.78
2022-09-06T09:42:57.118Z,32.6
2022-09-06T09:43:59.190Z,32.41
2022-09-06T09:44:57.107Z,32.1
2022-09-06T09:45:57.234Z,33.57
2022-09-06T09:46:57.145Z,32.32
2022-09-06T09:47:57.102Z,31.59
2022-09-06T09:48:57.246Z,32.19
2022-09-06T09:49:57.080Z,31.95
2022-09-06T09:50:57.097Z,31.66
2022-09-06T09:51:57.100Z,31.89
2022-09-06T09:52:57.118Z,31.36
2022-09-06T09:53:57.252Z,31.87
2022-09-06T09:54:57.102Z,32.62
2022-09-06T09:55:57.135Z,32.6
2022-09-06T09:56:57.127Z,32.24
2022-09-06T09:57:57.238Z,32.09
2022-09-06T09:58:57.177Z,32.53
2022-09-06T09:59:57.099Z,32.07
2022-09-06T10:00:57.562Z,31.96
2022-09-06T10:01:57.092Z,31.01
2022-09-06T10:02:57.126Z,30.54
2022-09-06T10:04:57.097Z,31.37
2022-09-06T10:06:03.419Z,30.63
2022-09-06T10:07:10.625Z,30.58
2022-09-06T10:07:57.114Z,30.08
2022-09-06T10:08:57.195Z,29.85
2022-09-06T10:09:57.109Z,28.06
2022-09-06T10:10:57.114Z,29.35
2022-09-06T10:11:57.100Z,29.62
2022-09-06T10:12:57.105Z,30.14
2022-09-06T10:13:57.107Z,30.03
2022-09-06T10:14:57.106Z,30.23
2022-09-06T10:15:57.129Z,30.63
2022-09-06T10:16:57.104Z,30.74
2022-09-06T10:17:57.115Z,30.57
2022-09-06T10:18:57.123Z,30.24
2022-09-06T10:19:57.108Z,30.74
2022-09-06T10:20:57.093Z,30.05
2022-09-06T10:21:57.253Z,30.88
2022-09-06T10:22:57.303Z,30.47
2022-09-06T10:24:28.343Z,30.13
2022-09-06T10:24:57.105Z,29.49
2022-09-06T10:25:57.103Z,29.52
2022-09-06T10:26:57.109Z,29.8
2022-09-06T10:28:11.561Z,30.9
2022-09-06T10:28:57.103Z,30.17
2022-09-06T10:29:57.130Z,29.58
2022-09-06T10:30:57.124Z,29.98
2022-09-06T10:31:57.101Z,30.47
2022-09-06T10:32:57.146Z,29.71
2022-09-06T10:33:57.190Z,29.33
2022-09-06T10:34:57.075Z,29.13
2022-09-06T10:35:57.208Z,29.95
2022-09-06T10:36:57.071Z,29.03
2022-09-06T10:37:57.334Z,28.3
2022-09-06T10:39:03.623Z,28.24
2022-09-06T10:39:57.162Z,28.79
2022-09-06T10:40:57.250Z,27.78
2022-09-06T10:41:57.496Z,27.82
2022-09-06T10:42:57.183Z,28.68
2022-09-06T10:43:57.423Z,27.77
2022-09-06T10:44:57.719Z,29.12
2022-09-06T10:45:57.097Z,29.34
2022-09-06T10:46:57.291Z,29.07
2022-09-06T10:47:57.298Z,28.35
2022-09-06T10:48:57.080Z,29.42
2022-09-06T10:49:57.129Z,29.97
2022-09-06T10:50:57.096Z,29.84
2022-09-06T10:51:57.173Z,29.99
2022-09-06T10:52:57.087Z,28.67
2022-09-06T10:53:57.335Z,28.35
2022-09-06T10:54:57.195Z,28.72
2022-09-06T10:56:03.121Z,28.51
2022-09-06T10:56:57.255Z,29.15
2022-09-06T10:58:18.332Z,29.79
2022-09-06T10:59:57.121Z,28.78
2022-09-06T11:00:57.119Z,28.35
2022-09-06T11:01:57.165Z,28.59
2022-09-06T11:04:04.591Z,28.82
2022-09-06T11:05:57.188Z,27.91
2022-09-06T11:06:57.212Z,28.89
2022-09-06T11:09:00.259Z,27.44
2022-09-06T11:09:57.108Z,27.31
2022-09-06T11:10:57.089Z,27.12
2022-09-06T11:11:57.117Z,27.46
2022-09-06T11:12:57.121Z,28.43
2022-09-06T11:13:57.098Z,28.4
2022-09-06T11:14:57.107Z,27.91
2022-09-06T11:15:57.117Z,28.72
2022-09-06T11:16:57.218Z,29.19
2022-09-06T11:17:57.201Z,29.74
2022-09-06T11:18:57.111Z,30.08
2022-09-06T11:19:57.104Z,29.96
2022-09-06T11:20:57.093Z,29.48
2022-09-06T11:21:57.106Z,29.39
2022-09-06T11:22:57.100Z,28.77
2022-09-06T11:23:57.109Z,28.79
2022-09-06T11:24:57.106Z,28.68
2022-09-06T11:25:57.108Z,27.25
2022-09-06T11:26:57.235Z,27.19
2022-09-06T11:28:00.121Z,26.44
2022-09-06T11:28:57.108Z,26.52
2022-09-06T11:29:57.100Z,27.18
2022-09-06T11:30:57.167Z,26.17
2022-09-06T11:32:18.012Z,26.77
2022-09-06T11:32:57.135Z,27.46
2022-09-06T11:34:03.104Z,26.94
2022-09-06T11:34:57.097Z,27.6
2022-09-06T11:35:57.104Z,27.23
2022-09-06T11:36:57.105Z,27.5
2022-09-06T11:37:57.079Z,26.91
2022-09-06T11:38:57.161Z,28.35
2022-09-06T11:40:30.697Z,28.46
2022-09-06T11:40:57.230Z,28.11
2022-09-06T11:41:57.148Z,28.68
2022-09-06T11:42:57.388Z,28.97
2022-09-06T11:43:57.602Z,28.75
2022-09-06T11:44:57.372Z,28.15
2022-09-06T11:45:57.737Z,28.11
2022-09-06T11:46:58.512Z,28.59
2022-09-06T11:47:57.741Z,28.09
2022-09-06T11:48:58.147Z,29.36
2022-09-06T11:49:58.742Z,28.06
2022-09-06T11:50:58.773Z,29.11
2022-09-06T11:51:57.839Z,27.81
2022-09-06T11:52:58.583Z,28.8
2022-09-06T11:53:57.304Z,28.75
2022-09-06T11:54:57.412Z,28.81
2022-09-06T11:55:57.680Z,28.52
2022-09-06T11:56:57.188Z,28.5
2022-09-06T11:57:57.415Z,27.88
2022-09-06T11:58:57.525Z,28.28
2022-09-06T11:59:57.824Z,28.8
2022-09-06T12:00:57.093Z,28.92
2022-09-06T12:01:57.083Z,27.51
2022-09-06T12:05:01.780Z,27.89
2022-09-06T12:05:57.171Z,28.54
2022-09-06T12:06:57.106Z,27.42
2022-09-06T12:07:57.320Z,27.43
2022-09-06T12:08:57.581Z,26.43
2022-09-06T12:09:57.161Z,26.08
2022-09-06T12:10:57.209Z,25.98
2022-09-06T12:11:57.458Z,26.23
2022-09-06T12:12:57.239Z,26.62
2022-09-06T12:13:57.100Z,27.51
2022-09-06T12:14:57.359Z,26.97
2022-09-06T12:15:57.608Z,27.28
2022-09-06T12:16:57.191Z,27.18
2022-09-06T12:17:57.212Z,26.68
2022-09-06T12:18:57.372Z,25.93
2022-09-06T12:19:57.090Z,25.73
2022-09-06T12:20:57.181Z,26.54
2022-09-06T12:21:57.397Z,26.1
2022-09-06T12:22:57.153Z,25.87
2022-09-06T12:23:57.116Z,25.59
2022-09-06T12:24:57.117Z,26.5
2022-09-06T12:25:57.102Z,26.63
2022-09-06T12:26:58.106Z,25.83
2022-09-06T12:27:57.113Z,25.82
2022-09-06T12:28:57.112Z,25.76
2022-09-06T12:29:57.110Z,25.26
2022-09-06T12:30:57.141Z,24.95
2022-09-06T12:31:57.114Z,24.28
2022-09-06T12:32:57.150Z,24.89
2022-09-06T12:33:57.111Z,24.3
2022-09-06T12:35:57.332Z,24.24
2022-09-06T12:36:57.105Z,24.55
2022-09-06T12:37:57.139Z,24.42
2022-09-06T12:38:57.103Z,25.03
2022-09-06T12:39:57.191Z,24.88
2022-09-06T12:40:57.105Z,25.02
2022-09-06T12:41:57.108Z,23.95
2022-09-06T12:42:57.117Z,24.29
2022-09-06T12:43:57.109Z,24.59
2022-09-06T12:44:57.104Z,25.06
2022-09-06T12:45:57.200Z,24.99
2022-09-06T12:46:57.109Z,24.95
2022-09-06T12:47:57.103Z,25.44
2022-09-06T12:48:57.112Z,25.5
2022-09-06T12:49:57.105Z,25.37
2022-09-06T12:50:57.115Z,26.65
2022-09-06T12:51:57.103Z,26.58
2022-09-06T12:52:57.108Z,26.9
2022-09-06T12:53:57.107Z,27.29
2022-09-06T12:54:57.108Z,26.63
2022-09-06T12:55:57.109Z,26.5
2022-09-06T12:56:57.147Z,26.27
2022-09-06T12:57:57.098Z,27.12
2022-09-06T12:58:57.228Z,25.97
2022-09-06T12:59:57.106Z,26.84
2022-09-06T13:00:57.105Z,27.44
2022-09-06T13:01:57.196Z,27.21
2022-09-06T13:02:57.252Z,28.01
2022-09-06T13:03:57.100Z,27.2
2022-09-06T13:04:57.116Z,27.31
2022-09-06T13:05:57.105Z,26.06
2022-09-06T13:06:57.133Z,25.81
2022-09-06T13:07:57.135Z,25.54
2022-09-06T13:08:57.196Z,25.51
2022-09-06T13:09:57.124Z,23.94
2022-09-06T13:10:57.099Z,24.19
2022-09-06T13:11:57.101Z,24.45
2022-09-06T13:12:57.110Z,24.32
2022-09-06T13:13:57.105Z,24.9
2022-09-06T13:14:57.106Z,25.24
2022-09-06T13:15:57.115Z,25.94
2022-09-06T13:16:57.103Z,24.95
2022-09-06T13:17:57.110Z,25.89